PBD110 ULMM-ULPB
Flight info
| Callsign | PBD110 |
|---|---|
| Flight time | 1h 15m |
| Altitude | 35000 |
| Route | ASGOR1P ASGOR T693 PILAN M856 KUKUM/K0854F360 M856 PABMA P986 OSNEN OSNEN2G |
| Aircraft | B738/M-SDE2E3FGHIRWXY/LB1 |
Departure
| Time | 2026-05-08 11:08 |
|---|---|
| Airport | Emperor Nicholas II Murmansk Airport (ULMM) |
Arrival
| Time | 2026-05-08 12:23 |
|---|---|
| Airport | Petrozavodsk Airport (ULPB) |
| Time | Latitude | Longitude | Altitude | Speed | Heading |
|---|---|---|---|---|---|
| 2026-05-08 10:32 | 68.78519 | 32.75579 | 867 ft | 0 kts | 326° |
| 2026-05-08 10:56 | 68.78516 | 32.75586 | 867 ft | 2 kts | 327° |
| 2026-05-08 10:57 | 68.78504 | 32.75607 | 867 ft | 2 kts | 326° |
| 2026-05-08 10:57 | 68.78492 | 32.75631 | 867 ft | 2 kts | 326° |
| 2026-05-08 10:57 | 68.78464 | 32.75645 | 867 ft | 2 kts | 20° |
| 2026-05-08 10:58 | 68.78451 | 32.75624 | 867 ft | 2 kts | 48° |
| 2026-05-08 10:58 | 68.78443 | 32.75590 | 867 ft | 2 kts | 61° |
| 2026-05-08 10:58 | 68.78435 | 32.75554 | 867 ft | 2 kts | 55° |
| 2026-05-08 10:58 | 68.78429 | 32.75516 | 867 ft | 2 kts | 83° |
| 2026-05-08 10:59 | 68.78429 | 32.75475 | 867 ft | 2 kts | 104° |
| 2026-05-08 10:59 | 68.78435 | 32.75437 | 867 ft | 2 kts | 126° |
| 2026-05-08 10:59 | 68.78442 | 32.75413 | 867 ft | 0 kts | 143° |
| 2026-05-08 10:59 | 68.78449 | 32.75402 | 867 ft | 0 kts | 147° |
| 2026-05-08 11:02 | 68.78448 | 32.75404 | 867 ft | 0 kts | 147° |
| 2026-05-08 11:02 | 68.78442 | 32.75413 | 867 ft | 1 kts | 147° |
| 2026-05-08 11:03 | 68.78427 | 32.75440 | 867 ft | 2 kts | 152° |
| 2026-05-08 11:03 | 68.78413 | 32.75441 | 867 ft | 2 kts | 200° |
| 2026-05-08 11:03 | 68.78397 | 32.75391 | 867 ft | 4 kts | 237° |
| 2026-05-08 11:03 | 68.78374 | 32.75293 | 867 ft | 7 kts | 237° |
| 2026-05-08 11:04 | 68.78337 | 32.75134 | 867 ft | 11 kts | 238° |
| 2026-05-08 11:04 | 68.78288 | 32.74968 | 867 ft | 10 kts | 210° |
| 2026-05-08 11:04 | 68.78217 | 32.75025 | 867 ft | 12 kts | 146° |
| 2026-05-08 11:04 | 68.78138 | 32.75173 | 867 ft | 15 kts | 147° |
| 2026-05-08 11:05 | 68.78037 | 32.75358 | 867 ft | 19 kts | 146° |
| 2026-05-08 11:05 | 68.77911 | 32.75590 | 867 ft | 22 kts | 145° |
| 2026-05-08 11:05 | 68.77787 | 32.75828 | 867 ft | 20 kts | 143° |
| 2026-05-08 11:05 | 68.77676 | 32.76043 | 867 ft | 19 kts | 149° |
| 2026-05-08 11:06 | 68.77554 | 32.76254 | 867 ft | 21 kts | 146° |
| 2026-05-08 11:06 | 68.77433 | 32.76481 | 867 ft | 17 kts | 144° |
| 2026-05-08 11:06 | 68.77357 | 32.76651 | 867 ft | 11 kts | 138° |
| 2026-05-08 11:06 | 68.77314 | 32.76734 | 867 ft | 2 kts | 178° |
| 2026-05-08 11:07 | 68.77311 | 32.76701 | 867 ft | 1 kts | 303° |
| 2026-05-08 11:07 | 68.77319 | 32.76686 | 867 ft | 0 kts | 324° |
| 2026-05-08 11:07 | 68.77354 | 32.76617 | 867 ft | 27 kts | 327° |
| 2026-05-08 11:08 | 68.77718 | 32.75954 | 867 ft | 95 kts | 326° |
| 2026-05-08 11:08 | 68.78444 | 32.74606 | 868 ft | 153 kts | 326° |
| 2026-05-08 11:08 | 68.79399 | 32.72816 | 1249 ft | 168 kts | 327° |
| 2026-05-08 11:08 | 68.80352 | 32.70984 | 1797 ft | 169 kts | 324° |
| 2026-05-08 11:09 | 68.81309 | 32.69150 | 2289 ft | 170 kts | 324° |
| 2026-05-08 11:09 | 68.82282 | 32.67272 | 2723 ft | 176 kts | 326° |
| 2026-05-08 11:09 | 68.83347 | 32.65208 | 2926 ft | 198 kts | 326° |
| 2026-05-08 11:09 | 68.84550 | 32.63024 | 3211 ft | 219 kts | 328° |
| 2026-05-08 11:10 | 68.85867 | 32.60722 | 3769 ft | 228 kts | 326° |
| 2026-05-08 11:10 | 68.87080 | 32.57930 | 4459 ft | 230 kts | 307° |
| 2026-05-08 11:10 | 68.87589 | 32.53833 | 5143 ft | 233 kts | 270° |
| 2026-05-08 11:10 | 68.87070 | 32.49491 | 5613 ft | 251 kts | 238° |
| 2026-05-08 11:11 | 68.85935 | 32.45681 | 6172 ft | 261 kts | 236° |
| 2026-05-08 11:11 | 68.84931 | 32.41470 | 6253 ft | 265 kts | 238° |
| 2026-05-08 11:11 | 68.83585 | 32.38042 | 6232 ft | 267 kts | 210° |
| 2026-05-08 11:11 | 68.81748 | 32.37175 | 6240 ft | 277 kts | 175° |
| 2026-05-08 11:12 | 68.79923 | 32.38949 | 6242 ft | 282 kts | 156° |
| 2026-05-08 11:12 | 68.78224 | 32.41618 | 6234 ft | 283 kts | 149° |
| 2026-05-08 11:12 | 68.76600 | 32.44648 | 6234 ft | 282 kts | 148° |
| 2026-05-08 11:12 | 68.74982 | 32.47648 | 6236 ft | 282 kts | 148° |
| 2026-05-08 11:13 | 68.73347 | 32.50683 | 6235 ft | 282 kts | 148° |
| 2026-05-08 11:13 | 68.71719 | 32.53715 | 6235 ft | 282 kts | 148° |
| 2026-05-08 11:13 | 68.70104 | 32.56720 | 6236 ft | 282 kts | 148° |
| 2026-05-08 11:13 | 68.68480 | 32.59739 | 6236 ft | 282 kts | 148° |
| 2026-05-08 11:14 | 68.66747 | 32.62335 | 6269 ft | 286 kts | 162° |
| 2026-05-08 11:14 | 68.64846 | 32.64113 | 6903 ft | 292 kts | 164° |
| 2026-05-08 11:14 | 68.62935 | 32.65937 | 7811 ft | 290 kts | 164° |
| 2026-05-08 11:14 | 68.61054 | 32.67742 | 8598 ft | 291 kts | 164° |
| 2026-05-08 11:15 | 68.59151 | 32.69557 | 9363 ft | 293 kts | 165° |
| 2026-05-08 11:15 | 68.57241 | 32.71375 | 10114 ft | 296 kts | 165° |
| 2026-05-08 11:15 | 68.55300 | 32.73220 | 10842 ft | 299 kts | 165° |
| 2026-05-08 11:15 | 68.53320 | 32.75097 | 11530 ft | 305 kts | 166° |
| 2026-05-08 11:16 | 68.51289 | 32.76485 | 12239 ft | 303 kts | 180° |
| 2026-05-08 11:16 | 68.49147 | 32.76442 | 12651 ft | 316 kts | 188° |
| 2026-05-08 11:16 | 68.46871 | 32.76102 | 12839 ft | 340 kts | 187° |
| 2026-05-08 11:16 | 68.44465 | 32.75866 | 13429 ft | 351 kts | 186° |
| 2026-05-08 11:17 | 68.42030 | 32.75636 | 14150 ft | 357 kts | 186° |
| 2026-05-08 11:17 | 68.39536 | 32.75612 | 14918 ft | 363 kts | 184° |
| 2026-05-08 11:17 | 68.37026 | 32.75713 | 15686 ft | 368 kts | 184° |
| 2026-05-08 11:17 | 68.34460 | 32.75771 | 16448 ft | 372 kts | 184° |
| 2026-05-08 11:18 | 68.31870 | 32.75810 | 17189 ft | 376 kts | 184° |
| 2026-05-08 11:18 | 68.29255 | 32.75854 | 17909 ft | 380 kts | 184° |
| 2026-05-08 11:18 | 68.26608 | 32.75898 | 18609 ft | 384 kts | 184° |
| 2026-05-08 11:18 | 68.23943 | 32.75940 | 19289 ft | 388 kts | 184° |
| 2026-05-08 11:19 | 68.21224 | 32.75982 | 19957 ft | 392 kts | 184° |
| 2026-05-08 11:19 | 68.18520 | 32.76023 | 20588 ft | 396 kts | 184° |
| 2026-05-08 11:19 | 68.15746 | 32.76066 | 21249 ft | 399 kts | 184° |
| 2026-05-08 11:19 | 68.12985 | 32.76108 | 21863 ft | 403 kts | 184° |
| 2026-05-08 11:20 | 68.10165 | 32.76150 | 22460 ft | 407 kts | 184° |
| 2026-05-08 11:20 | 68.07341 | 32.76192 | 23034 ft | 410 kts | 184° |
| 2026-05-08 11:20 | 68.04464 | 32.76235 | 23595 ft | 414 kts | 184° |
| 2026-05-08 11:20 | 68.01593 | 32.76278 | 24136 ft | 418 kts | 183° |
| 2026-05-08 11:21 | 67.98679 | 32.76322 | 24666 ft | 421 kts | 183° |
| 2026-05-08 11:21 | 67.95753 | 32.76394 | 25179 ft | 425 kts | 183° |
| 2026-05-08 11:21 | 67.92786 | 32.76520 | 25680 ft | 428 kts | 182° |
| 2026-05-08 11:21 | 67.89831 | 32.76649 | 26162 ft | 431 kts | 183° |
| 2026-05-08 11:22 | 67.86800 | 32.76771 | 26638 ft | 435 kts | 183° |
| 2026-05-08 11:22 | 67.83780 | 32.76889 | 27096 ft | 438 kts | 182° |
| 2026-05-08 11:22 | 67.80760 | 32.77007 | 27538 ft | 441 kts | 182° |
| 2026-05-08 11:22 | 67.77668 | 32.77128 | 27976 ft | 444 kts | 182° |
| 2026-05-08 11:23 | 67.74599 | 32.77248 | 28396 ft | 447 kts | 182° |
| 2026-05-08 11:23 | 67.71465 | 32.77369 | 28811 ft | 450 kts | 182° |
| 2026-05-08 11:23 | 67.68342 | 32.77489 | 29210 ft | 453 kts | 182° |
| 2026-05-08 11:23 | 67.65215 | 32.77609 | 29597 ft | 456 kts | 182° |
| 2026-05-08 11:24 | 67.62052 | 32.77730 | 29974 ft | 458 kts | 182° |
| 2026-05-08 11:24 | 67.58854 | 32.77852 | 30322 ft | 461 kts | 182° |
| 2026-05-08 11:24 | 67.55639 | 32.77976 | 30886 ft | 458 kts | 182° |
| 2026-05-08 11:24 | 67.52499 | 32.78099 | 31412 ft | 456 kts | 182° |
| 2026-05-08 11:25 | 67.49325 | 32.78219 | 31870 ft | 455 kts | 182° |
| 2026-05-08 11:25 | 67.46178 | 32.78337 | 32312 ft | 455 kts | 182° |
| 2026-05-08 11:25 | 67.43018 | 32.78498 | 32736 ft | 454 kts | 182° |
| 2026-05-08 11:25 | 67.39891 | 32.78766 | 33139 ft | 454 kts | 181° |
| 2026-05-08 11:26 | 67.36717 | 32.79063 | 33534 ft | 453 kts | 181° |
| 2026-05-08 11:26 | 67.33610 | 32.79333 | 33907 ft | 452 kts | 181° |
| 2026-05-08 11:26 | 67.30434 | 32.79596 | 34275 ft | 452 kts | 181° |
| 2026-05-08 11:26 | 67.27334 | 32.79853 | 34621 ft | 451 kts | 181° |
| 2026-05-08 11:27 | 67.24227 | 32.80112 | 34955 ft | 450 kts | 181° |
| 2026-05-08 11:27 | 67.21077 | 32.80372 | 35228 ft | 451 kts | 181° |
| 2026-05-08 11:27 | 67.17954 | 32.80626 | 35234 ft | 455 kts | 181° |
| 2026-05-08 11:28 | 67.11677 | 32.81141 | 35236 ft | 451 kts | 181° |
| 2026-05-08 11:28 | 67.05443 | 32.81646 | 35236 ft | 449 kts | 181° |
| 2026-05-08 11:29 | 66.99192 | 32.82148 | 35236 ft | 450 kts | 181° |
| 2026-05-08 11:29 | 66.92951 | 32.82647 | 35236 ft | 450 kts | 181° |
| 2026-05-08 11:30 | 66.86713 | 32.83144 | 35236 ft | 450 kts | 181° |
| 2026-05-08 11:30 | 66.80433 | 32.83642 | 35236 ft | 450 kts | 181° |
| 2026-05-08 11:31 | 66.74224 | 32.84131 | 35236 ft | 450 kts | 181° |
| 2026-05-08 11:31 | 66.67937 | 32.84653 | 35236 ft | 450 kts | 181° |
| 2026-05-08 11:32 | 66.61723 | 32.85344 | 35236 ft | 450 kts | 181° |
| 2026-05-08 11:32 | 66.55485 | 32.86013 | 35236 ft | 450 kts | 181° |
| 2026-05-08 11:33 | 66.49252 | 32.86674 | 35236 ft | 450 kts | 181° |
| 2026-05-08 11:33 | 66.43006 | 32.87332 | 35236 ft | 450 kts | 181° |
| 2026-05-08 11:34 | 66.36777 | 32.87958 | 35236 ft | 450 kts | 181° |
| 2026-05-08 11:34 | 66.30538 | 32.88317 | 35236 ft | 449 kts | 182° |
| 2026-05-08 11:35 | 66.24284 | 32.88685 | 35236 ft | 449 kts | 182° |
| 2026-05-08 11:35 | 66.18058 | 32.89062 | 35236 ft | 449 kts | 182° |
| 2026-05-08 11:36 | 66.11822 | 32.89438 | 35236 ft | 449 kts | 182° |
| 2026-05-08 11:36 | 66.05626 | 32.89812 | 35236 ft | 449 kts | 182° |
| 2026-05-08 11:37 | 65.99376 | 32.90188 | 35236 ft | 448 kts | 182° |
| 2026-05-08 11:37 | 65.93182 | 32.90559 | 35236 ft | 448 kts | 182° |
| 2026-05-08 11:38 | 65.86924 | 32.90932 | 35236 ft | 448 kts | 182° |
| 2026-05-08 11:38 | 65.80710 | 32.91301 | 35236 ft | 448 kts | 182° |
| 2026-05-08 11:39 | 65.74515 | 32.91650 | 35236 ft | 448 kts | 183° |
| 2026-05-08 11:39 | 65.68279 | 32.91339 | 35609 ft | 445 kts | 185° |
| 2026-05-08 11:39 | 65.65188 | 32.91129 | 35885 ft | 446 kts | 185° |
| 2026-05-08 11:40 | 65.62103 | 32.90965 | 36148 ft | 446 kts | 185° |
| 2026-05-08 11:40 | 65.55889 | 32.90640 | 36238 ft | 451 kts | 185° |
| 2026-05-08 11:41 | 65.49645 | 32.90318 | 36239 ft | 447 kts | 185° |
| 2026-05-08 11:41 | 65.43457 | 32.90003 | 36238 ft | 446 kts | 185° |
| 2026-05-08 11:42 | 65.37266 | 32.89691 | 36238 ft | 447 kts | 185° |
| 2026-05-08 11:42 | 65.31042 | 32.89381 | 36238 ft | 447 kts | 185° |
| 2026-05-08 11:43 | 65.24844 | 32.89074 | 36237 ft | 447 kts | 185° |
| 2026-05-08 11:43 | 65.18594 | 32.88767 | 36236 ft | 447 kts | 185° |
| 2026-05-08 11:44 | 65.12418 | 32.88465 | 36236 ft | 447 kts | 185° |
| 2026-05-08 11:44 | 65.06211 | 32.88163 | 36261 ft | 446 kts | 185° |
| 2026-05-08 11:45 | 65.00050 | 32.87864 | 36292 ft | 446 kts | 185° |
| 2026-05-08 11:45 | 64.93862 | 32.87566 | 36317 ft | 447 kts | 185° |
| 2026-05-08 11:46 | 64.87637 | 32.87267 | 36317 ft | 447 kts | 185° |
| 2026-05-08 11:46 | 64.81468 | 32.86973 | 36317 ft | 446 kts | 185° |
| 2026-05-08 11:47 | 64.75277 | 32.86679 | 36317 ft | 446 kts | 185° |
| 2026-05-08 11:47 | 64.69071 | 32.86385 | 36317 ft | 446 kts | 185° |
| 2026-05-08 11:48 | 64.62846 | 32.86092 | 36317 ft | 446 kts | 185° |
| 2026-05-08 11:48 | 64.56667 | 32.85802 | 36317 ft | 446 kts | 185° |
| 2026-05-08 11:49 | 64.50503 | 32.85515 | 36317 ft | 446 kts | 185° |
| 2026-05-08 11:49 | 64.44279 | 32.85225 | 36317 ft | 446 kts | 185° |
| 2026-05-08 11:50 | 64.38077 | 32.84938 | 36317 ft | 446 kts | 185° |
| 2026-05-08 11:50 | 64.31878 | 32.84653 | 36317 ft | 446 kts | 185° |
| 2026-05-08 11:51 | 64.25697 | 32.84370 | 36317 ft | 446 kts | 185° |
| 2026-05-08 11:51 | 64.19517 | 32.84088 | 36317 ft | 446 kts | 185° |
| 2026-05-08 11:52 | 64.13353 | 32.83808 | 36317 ft | 446 kts | 185° |
| 2026-05-08 11:52 | 64.07137 | 32.83527 | 36317 ft | 446 kts | 185° |
| 2026-05-08 11:53 | 64.00972 | 32.83249 | 36317 ft | 446 kts | 185° |
| 2026-05-08 11:53 | 63.94752 | 32.82970 | 36317 ft | 446 kts | 185° |
| 2026-05-08 11:54 | 63.88583 | 32.82695 | 36317 ft | 446 kts | 185° |
| 2026-05-08 11:54 | 63.82387 | 32.82420 | 36317 ft | 446 kts | 185° |
| 2026-05-08 11:55 | 63.76217 | 32.82148 | 36317 ft | 446 kts | 185° |
| 2026-05-08 11:55 | 63.70009 | 32.81738 | 36317 ft | 445 kts | 187° |
| 2026-05-08 11:55 | 63.66947 | 32.81242 | 36216 ft | 448 kts | 188° |
| 2026-05-08 11:56 | 63.63804 | 32.80706 | 35955 ft | 449 kts | 187° |
| 2026-05-08 11:56 | 63.60733 | 32.80233 | 35706 ft | 446 kts | 187° |
| 2026-05-08 11:56 | 63.57631 | 32.79778 | 35455 ft | 444 kts | 187° |
| 2026-05-08 11:56 | 63.54553 | 32.79321 | 35205 ft | 443 kts | 187° |
| 2026-05-08 11:57 | 63.51474 | 32.78870 | 34955 ft | 443 kts | 187° |
| 2026-05-08 11:57 | 63.48420 | 32.78492 | 34708 ft | 444 kts | 186° |
| 2026-05-08 11:57 | 63.45345 | 32.78148 | 34458 ft | 444 kts | 186° |
| 2026-05-08 11:57 | 63.42268 | 32.77797 | 34208 ft | 443 kts | 186° |
| 2026-05-08 11:58 | 63.39202 | 32.77437 | 33957 ft | 442 kts | 186° |
| 2026-05-08 11:58 | 63.36142 | 32.77079 | 33706 ft | 440 kts | 186° |
| 2026-05-08 11:58 | 63.33114 | 32.76728 | 33457 ft | 437 kts | 186° |
| 2026-05-08 11:59 | 63.27054 | 32.76025 | 32953 ft | 433 kts | 186° |
| 2026-05-08 11:59 | 63.24078 | 32.75679 | 32705 ft | 431 kts | 187° |
| 2026-05-08 11:59 | 63.21075 | 32.75332 | 32453 ft | 430 kts | 187° |
| 2026-05-08 11:59 | 63.18124 | 32.74991 | 32204 ft | 428 kts | 187° |
| 2026-05-08 12:00 | 63.15151 | 32.74649 | 31953 ft | 427 kts | 187° |
| 2026-05-08 12:00 | 63.12198 | 32.74309 | 31702 ft | 425 kts | 187° |
| 2026-05-08 12:00 | 63.09274 | 32.73974 | 31398 ft | 422 kts | 187° |
| 2026-05-08 12:00 | 63.06374 | 32.73643 | 30911 ft | 418 kts | 187° |
| 2026-05-08 12:01 | 63.03462 | 32.73310 | 30376 ft | 416 kts | 187° |
| 2026-05-08 12:01 | 63.00599 | 32.72982 | 29835 ft | 414 kts | 187° |
| 2026-05-08 12:01 | 62.97705 | 32.72765 | 29278 ft | 414 kts | 185° |
| 2026-05-08 12:01 | 62.94860 | 32.72729 | 28736 ft | 412 kts | 184° |
| 2026-05-08 12:02 | 62.92016 | 32.72699 | 28195 ft | 410 kts | 184° |
| 2026-05-08 12:02 | 62.89175 | 32.72633 | 27654 ft | 408 kts | 185° |
| 2026-05-08 12:02 | 62.86362 | 32.72695 | 27121 ft | 408 kts | 180° |
| 2026-05-08 12:02 | 62.83553 | 32.73653 | 26581 ft | 411 kts | 169° |
| 2026-05-08 12:03 | 62.80844 | 32.75791 | 26036 ft | 414 kts | 158° |
| 2026-05-08 12:03 | 62.78374 | 32.78975 | 25492 ft | 415 kts | 148° |
| 2026-05-08 12:03 | 62.76046 | 32.82706 | 24941 ft | 415 kts | 146° |
| 2026-05-08 12:03 | 62.73751 | 32.86380 | 24397 ft | 413 kts | 147° |
| 2026-05-08 12:04 | 62.71403 | 32.90044 | 23843 ft | 412 kts | 147° |
| 2026-05-08 12:04 | 62.69099 | 32.93640 | 23295 ft | 408 kts | 147° |
| 2026-05-08 12:04 | 62.66812 | 32.97230 | 22752 ft | 399 kts | 147° |
| 2026-05-08 12:04 | 62.64607 | 33.00689 | 22229 ft | 390 kts | 147° |
| 2026-05-08 12:05 | 62.62433 | 33.04089 | 21711 ft | 381 kts | 147° |
| 2026-05-08 12:05 | 62.60313 | 33.07401 | 21205 ft | 373 kts | 147° |
| 2026-05-08 12:05 | 62.58244 | 33.10629 | 20712 ft | 368 kts | 147° |
| 2026-05-08 12:05 | 62.56145 | 33.13896 | 20207 ft | 367 kts | 147° |
| 2026-05-08 12:06 | 62.54074 | 33.17116 | 19707 ft | 366 kts | 147° |
| 2026-05-08 12:06 | 62.52029 | 33.20294 | 19209 ft | 361 kts | 147° |
| 2026-05-08 12:06 | 62.50008 | 33.23430 | 18722 ft | 354 kts | 147° |
| 2026-05-08 12:06 | 62.48016 | 33.26514 | 18242 ft | 349 kts | 147° |
| 2026-05-08 12:07 | 62.46055 | 33.29544 | 17766 ft | 349 kts | 147° |
| 2026-05-08 12:07 | 62.44085 | 33.32583 | 17287 ft | 349 kts | 147° |
| 2026-05-08 12:07 | 62.42106 | 33.35635 | 16804 ft | 348 kts | 147° |
| 2026-05-08 12:07 | 62.40149 | 33.38649 | 16326 ft | 348 kts | 147° |
| 2026-05-08 12:08 | 62.38191 | 33.41661 | 15846 ft | 347 kts | 147° |
| 2026-05-08 12:08 | 62.36229 | 33.44672 | 15365 ft | 347 kts | 147° |
| 2026-05-08 12:08 | 62.34265 | 33.47683 | 14881 ft | 346 kts | 147° |
| 2026-05-08 12:08 | 62.32334 | 33.50637 | 14403 ft | 345 kts | 147° |
| 2026-05-08 12:09 | 62.30375 | 33.53632 | 13918 ft | 340 kts | 147° |
| 2026-05-08 12:09 | 62.28456 | 33.56560 | 13444 ft | 335 kts | 147° |
| 2026-05-08 12:09 | 62.26577 | 33.59422 | 12978 ft | 330 kts | 147° |
| 2026-05-08 12:09 | 62.24728 | 33.62233 | 12519 ft | 326 kts | 147° |
| 2026-05-08 12:10 | 62.22890 | 33.65023 | 12061 ft | 322 kts | 148° |
| 2026-05-08 12:10 | 62.21082 | 33.67765 | 11610 ft | 317 kts | 148° |
| 2026-05-08 12:10 | 62.19292 | 33.70473 | 11149 ft | 314 kts | 148° |
| 2026-05-08 12:10 | 62.17519 | 33.73192 | 10670 ft | 310 kts | 146° |
| 2026-05-08 12:11 | 62.15844 | 33.75947 | 10439 ft | 297 kts | 145° |
| 2026-05-08 12:11 | 62.14259 | 33.78560 | 10258 ft | 283 kts | 146° |
| 2026-05-08 12:11 | 62.12726 | 33.81058 | 9920 ft | 277 kts | 146° |
| 2026-05-08 12:11 | 62.11202 | 33.83541 | 9575 ft | 272 kts | 146° |
| 2026-05-08 12:12 | 62.09710 | 33.85969 | 9238 ft | 271 kts | 146° |
| 2026-05-08 12:12 | 62.08218 | 33.88391 | 8903 ft | 269 kts | 145° |
| 2026-05-08 12:12 | 62.06721 | 33.90820 | 8565 ft | 268 kts | 145° |
| 2026-05-08 12:12 | 62.05260 | 33.93189 | 8238 ft | 266 kts | 145° |
| 2026-05-08 12:13 | 62.03782 | 33.95582 | 7902 ft | 265 kts | 145° |
| 2026-05-08 12:13 | 62.02319 | 33.97945 | 7572 ft | 263 kts | 145° |
| 2026-05-08 12:13 | 62.00830 | 34.00144 | 7229 ft | 260 kts | 155° |
| 2026-05-08 12:13 | 61.99127 | 34.01112 | 6912 ft | 254 kts | 180° |
| 2026-05-08 12:14 | 61.97416 | 34.00535 | 6595 ft | 250 kts | 200° |
| 2026-05-08 12:14 | 61.96526 | 33.99775 | 6421 ft | 249 kts | 204° |
| 2026-05-08 12:14 | 61.95641 | 33.98956 | 6242 ft | 248 kts | 203° |
| 2026-05-08 12:14 | 61.94061 | 33.97532 | 5922 ft | 246 kts | 201° |
| 2026-05-08 12:15 | 61.92491 | 33.96141 | 5610 ft | 245 kts | 203° |
| 2026-05-08 12:15 | 61.90927 | 33.94726 | 5297 ft | 243 kts | 204° |
| 2026-05-08 12:15 | 61.89380 | 33.93322 | 4987 ft | 242 kts | 204° |
| 2026-05-08 12:15 | 61.87817 | 33.91923 | 4662 ft | 242 kts | 203° |
| 2026-05-08 12:16 | 61.86272 | 33.90535 | 4315 ft | 243 kts | 203° |
| 2026-05-08 12:16 | 61.84726 | 33.89156 | 3968 ft | 243 kts | 202° |
| 2026-05-08 12:16 | 61.83157 | 33.87752 | 3681 ft | 241 kts | 202° |
| 2026-05-08 12:16 | 61.81649 | 33.86401 | 3458 ft | 235 kts | 201° |
| 2026-05-08 12:17 | 61.80159 | 33.85069 | 3227 ft | 228 kts | 202° |
| 2026-05-08 12:17 | 61.78739 | 33.83791 | 3186 ft | 214 kts | 200° |
| 2026-05-08 12:17 | 61.77313 | 33.83294 | 3189 ft | 204 kts | 171° |
| 2026-05-08 12:17 | 61.76037 | 33.84338 | 3068 ft | 195 kts | 147° |
| 2026-05-08 12:18 | 61.75108 | 33.86370 | 2895 ft | 197 kts | 121° |
| 2026-05-08 12:18 | 61.74544 | 33.89063 | 2731 ft | 201 kts | 114° |
| 2026-05-08 12:18 | 61.74004 | 33.91789 | 2555 ft | 197 kts | 115° |
| 2026-05-08 12:18 | 61.73485 | 33.94380 | 2398 ft | 189 kts | 114° |
| 2026-05-08 12:19 | 61.72986 | 33.96896 | 2215 ft | 181 kts | 111° |
| 2026-05-08 12:19 | 61.72881 | 33.99381 | 2187 ft | 168 kts | 77° |
| 2026-05-08 12:19 | 61.73461 | 34.01636 | 2125 ft | 178 kts | 45° |
| 2026-05-08 12:19 | 61.74517 | 34.02977 | 2036 ft | 178 kts | 27° |
| 2026-05-08 12:20 | 61.75622 | 34.04134 | 1938 ft | 177 kts | 27° |
| 2026-05-08 12:20 | 61.76748 | 34.05183 | 1879 ft | 176 kts | 24° |
| 2026-05-08 12:20 | 61.77898 | 34.06197 | 1812 ft | 180 kts | 22° |
| 2026-05-08 12:20 | 61.79046 | 34.07199 | 1795 ft | 175 kts | 23° |
| 2026-05-08 12:21 | 61.80139 | 34.08150 | 1702 ft | 172 kts | 22° |
| 2026-05-08 12:21 | 61.81192 | 34.09070 | 1494 ft | 152 kts | 21° |
| 2026-05-08 12:21 | 61.82144 | 34.09900 | 1298 ft | 148 kts | 23° |
| 2026-05-08 12:21 | 61.83098 | 34.10731 | 1102 ft | 149 kts | 23° |
| 2026-05-08 12:22 | 61.84045 | 34.11554 | 902 ft | 144 kts | 24° |
| 2026-05-08 12:22 | 61.84974 | 34.12362 | 726 ft | 147 kts | 24° |
| 2026-05-08 12:22 | 61.85916 | 34.13168 | 521 ft | 145 kts | 22° |
| 2026-05-08 12:22 | 61.86840 | 34.13958 | 339 ft | 143 kts | 24° |
| 2026-05-08 12:23 | 61.87760 | 34.14802 | 164 ft | 141 kts | 24° |
| 2026-05-08 12:23 | 61.88477 | 34.15455 | 158 ft | 76 kts | 24° |
| 2026-05-08 12:23 | 61.88791 | 34.15729 | 158 ft | 25 kts | 23° |
| 2026-05-08 12:23 | 61.88855 | 34.15787 | 158 ft | 4 kts | 21° |
| 2026-05-08 12:24 | 61.88880 | 34.15813 | 158 ft | 3 kts | 46° |
| 2026-05-08 12:24 | 61.88895 | 34.15856 | 158 ft | 4 kts | 34° |
| 2026-05-08 12:24 | 61.88903 | 34.15818 | 158 ft | 5 kts | 231° |
| 2026-05-08 12:24 | 61.88848 | 34.15770 | 158 ft | 11 kts | 200° |
| 2026-05-08 12:25 | 61.88752 | 34.15694 | 158 ft | 18 kts | 200° |
| 2026-05-08 12:25 | 61.88618 | 34.15577 | 158 ft | 23 kts | 202° |
| 2026-05-08 12:25 | 61.88461 | 34.15428 | 158 ft | 24 kts | 203° |
| 2026-05-08 12:25 | 61.88304 | 34.15288 | 158 ft | 24 kts | 202° |
| 2026-05-08 12:26 | 61.88153 | 34.15156 | 158 ft | 22 kts | 204° |
| 2026-05-08 12:26 | 61.88007 | 34.15019 | 158 ft | 19 kts | 203° |
| 2026-05-08 12:26 | 61.87930 | 34.14980 | 158 ft | 9 kts | 166° |
| 2026-05-08 12:26 | 61.87893 | 34.15064 | 158 ft | 7 kts | 115° |
| 2026-05-08 12:27 | 61.87878 | 34.15137 | 158 ft | 4 kts | 112° |
| 2026-05-08 12:27 | 61.87868 | 34.15185 | 158 ft | 2 kts | 112° |
| 2026-05-08 12:27 | 61.87861 | 34.15223 | 158 ft | 3 kts | 112° |
| 2026-05-08 12:27 | 61.87847 | 34.15292 | 158 ft | 6 kts | 112° |
| 2026-05-08 12:28 | 61.87833 | 34.15361 | 158 ft | 3 kts | 121° |
| 2026-05-08 12:28 | 61.87818 | 34.15378 | 158 ft | 1 kts | 178° |
| 2026-05-08 12:28 | 61.87805 | 34.15371 | 158 ft | 2 kts | 200° |
| 2026-05-08 12:28 | 61.87783 | 34.15357 | 158 ft | 3 kts | 181° |
| 2026-05-08 12:29 | 61.87767 | 34.15385 | 158 ft | 2 kts | 122° |
| 2026-05-08 12:29 | 61.87761 | 34.15412 | 158 ft | 1 kts | 113° |
| 2026-05-08 12:29 | 61.87756 | 34.15434 | 158 ft | 2 kts | 112° |
| 2026-05-08 12:29 | 61.87754 | 34.15447 | 158 ft | 0 kts | 112° |